createdAt,value
2022-12-14T06:50:24.163Z,-1.30
2022-12-14T06:53:26.265Z,-1.10
2022-12-14T06:56:28.669Z,-0.80
2022-12-14T06:59:30.369Z,-0.60
2022-12-14T07:02:32.241Z,-0.50
2022-12-14T07:05:34.244Z,-0.40
2022-12-14T07:08:38.526Z,-0.20
2022-12-14T07:11:41.006Z,-0.30
2022-12-14T07:14:42.752Z,-0.30
2022-12-14T07:17:44.703Z,-0.20
2022-12-14T07:21:09.627Z,-0.30
2022-12-14T07:24:14.654Z,-0.30
2022-12-14T07:27:18.255Z,-0.30
2022-12-14T07:30:20.399Z,-0.30
2022-12-14T07:33:22.438Z,-0.30
2022-12-14T07:36:26.344Z,-0.20
2022-12-14T07:39:28.200Z,-0.30
2022-12-14T07:42:29.849Z,-0.10
2022-12-14T07:45:31.644Z,-0.10
2022-12-14T07:48:33.951Z,0.00
2022-12-14T07:51:38.327Z,0.10
2022-12-14T07:54:40.121Z,0.20
2022-12-14T07:57:42.054Z,0.20
2022-12-14T08:00:43.810Z,0.20
2022-12-14T08:03:48.971Z,0.10
2022-12-14T08:12:24.531Z,0.30
2022-12-14T08:15:26.492Z,0.30
2022-12-14T08:18:28.290Z,0.20
2022-12-14T08:21:30.852Z,0.20
2022-12-14T08:24:32.819Z,0.20
2022-12-14T08:27:34.552Z,0.10
2022-12-14T08:30:39.173Z,0.00
2022-12-14T08:33:42.623Z,0.00
2022-12-14T08:36:44.571Z,-0.10
2022-12-14T08:39:49.467Z,-0.20
2022-12-14T08:42:51.424Z,0.00
2022-12-14T08:45:55.747Z,0.10
2022-12-14T08:48:58.802Z,0.10
2022-12-14T08:52:00.992Z,0.20
2022-12-14T08:55:02.930Z,0.20
2022-12-14T08:58:04.777Z,0.10
2022-12-14T09:01:13.829Z,0.00
2022-12-14T09:04:15.784Z,0.00
2022-12-14T09:07:17.714Z,0.10
2022-12-14T09:10:19.391Z,0.20
2022-12-14T09:13:23.630Z,0.30
2022-12-14T09:16:26.515Z,0.30
2022-12-14T09:19:29.690Z,0.30
2022-12-14T09:22:31.894Z,0.40
2022-12-14T09:25:34.102Z,0.30
2022-12-14T09:28:38.399Z,0.10
2022-12-14T09:31:40.662Z,-0.10
2022-12-14T09:34:42.448Z,0.00
2022-12-14T09:37:44.369Z,0.10
2022-12-14T09:40:55.826Z,0.40
2022-12-14T09:44:25.552Z,1.30
2022-12-14T09:47:35.291Z,0.70
2022-12-14T09:50:38.899Z,0.30
2022-12-14T09:53:42.138Z,0.30
2022-12-14T09:56:44.250Z,0.20
2022-12-14T09:59:54.602Z,0.00
2022-12-14T10:03:30.169Z,-0.10
2022-12-14T10:07:07.689Z,0.00
2022-12-14T10:10:32.995Z,0.10
2022-12-14T10:13:56.940Z,0.10
2022-12-14T10:17:38.687Z,0.20
2022-12-14T10:20:50.489Z,0.20
2022-12-14T10:23:58.117Z,0.30
2022-12-14T10:27:01.721Z,0.40
2022-12-14T10:30:07.545Z,0.30
2022-12-14T10:33:24.178Z,0.30
2022-12-14T10:36:36.119Z,0.40
2022-12-14T10:40:29.232Z,0.50
2022-12-14T10:44:01.970Z,0.60
2022-12-14T10:47:33.315Z,0.50
2022-12-14T10:51:05.032Z,0.50
2022-12-14T10:54:21.074Z,0.10
2022-12-14T10:57:26.428Z,0.10
2022-12-14T11:00:28.269Z,0.20
2022-12-14T11:03:30.318Z,0.20
2022-12-14T11:06:33.866Z,0.10
2022-12-14T11:09:37.350Z,0.20
2022-12-14T11:12:39.102Z,0.10
2022-12-14T11:15:45.479Z,0.20
2022-12-14T11:18:57.994Z,0.40
2022-12-14T11:22:15.820Z,0.50
2022-12-14T11:25:40.494Z,0.60
2022-12-14T11:28:49.768Z,0.40
2022-12-14T11:31:53.495Z,0.20
2022-12-14T11:34:58.355Z,0.20
2022-12-14T11:38:00.584Z,0.10
2022-12-14T11:41:10.648Z,0.20
2022-12-14T11:44:16.373Z,0.30
2022-12-14T11:47:21.597Z,0.30
2022-12-14T11:50:25.401Z,0.30
2022-12-14T11:53:27.087Z,0.30
2022-12-14T11:56:29.526Z,0.40
2022-12-14T11:59:42.970Z,0.50
2022-12-14T12:02:59.893Z,0.50
2022-12-14T12:06:05.515Z,0.70
2022-12-14T12:09:25.734Z,0.80
2022-12-14T12:12:27.673Z,0.70
2022-12-14T12:15:40.302Z,0.50
2022-12-14T12:18:54.157Z,0.50
2022-12-14T12:21:59.542Z,0.50
2022-12-14T12:28:32.787Z,0.50
2022-12-14T12:31:40.533Z,0.60
2022-12-14T12:35:11.925Z,0.60
2022-12-14T12:38:25.999Z,0.50
2022-12-14T12:41:55.813Z,0.50
2022-12-14T12:45:24.072Z,0.50
2022-12-14T12:48:49.005Z,0.50
2022-12-14T12:51:58.926Z,0.40
2022-12-14T12:55:03.633Z,0.30
2022-12-14T12:58:09.962Z,0.30
2022-12-14T13:01:32.727Z,0.10
2022-12-14T13:04:39.269Z,0.20
2022-12-14T13:07:46.429Z,0.30
2022-12-14T13:14:31.331Z,0.40
2022-12-14T13:17:38.312Z,0.20
2022-12-14T13:20:40.205Z,0.30
2022-12-14T13:23:45.648Z,0.40
2022-12-14T13:27:23.964Z,0.30
2022-12-14T13:30:34.997Z,0.30
2022-12-14T13:34:08.745Z,0.40
2022-12-14T13:37:38.028Z,0.30
2022-12-14T13:41:03.388Z,0.10
2022-12-14T13:44:40.192Z,-0.10
2022-12-14T13:47:51.333Z,-0.20
2022-12-14T13:51:03.896Z,-0.20
2022-12-14T13:54:18.169Z,-0.10
2022-12-14T13:57:24.843Z,-0.10
2022-12-14T14:00:47.511Z,-0.20
2022-12-14T14:03:53.919Z,-0.20
2022-12-14T14:07:22.864Z,-0.20
2022-12-14T14:10:32.132Z,-0.30
2022-12-14T14:13:33.849Z,-0.30
2022-12-14T14:16:45.108Z,-0.50
2022-12-14T14:19:49.676Z,-0.40
2022-12-14T14:23:12.730Z,-0.20
2022-12-14T14:26:24.977Z,-0.20
2022-12-14T14:29:29.748Z,-0.10
2022-12-14T14:32:42.048Z,-0.20
2022-12-14T14:35:43.896Z,-0.20
2022-12-14T14:38:46.826Z,-0.20
2022-12-14T14:41:52.235Z,-0.30
2022-12-14T14:44:58.213Z,-0.20
2022-12-14T14:48:02.862Z,0.40
2022-12-14T14:51:20.592Z,0.70
2022-12-14T14:55:11.177Z,0.50
2022-12-14T14:58:22.100Z,0.20
2022-12-14T15:01:27.994Z,-0.20
2022-12-14T15:04:51.844Z,-0.30
2022-12-14T15:07:58.990Z,-0.40
2022-12-14T15:11:05.327Z,-0.40
2022-12-14T15:14:25.208Z,-0.50
2022-12-14T15:17:27.012Z,-0.40
2022-12-14T15:20:30.019Z,-0.50
2022-12-14T15:23:52.571Z,-0.50
2022-12-14T15:26:54.455Z,-0.60
2022-12-14T15:30:03.212Z,-0.70
2022-12-14T15:33:09.099Z,-0.70
2022-12-14T15:36:15.949Z,-0.60
2022-12-14T15:39:39.773Z,-0.70
2022-12-14T15:43:01.287Z,-0.60
2022-12-14T15:46:03.623Z,-0.50
2022-12-14T15:49:08.862Z,-0.50
2022-12-14T15:52:10.851Z,-0.60
2022-12-14T15:55:34.014Z,-0.60
2022-12-14T15:58:38.926Z,-0.60
2022-12-14T16:01:44.951Z,-0.70
2022-12-14T16:04:49.700Z,-0.70
2022-12-14T16:07:56.004Z,-0.70
2022-12-14T16:11:01.199Z,-0.80
2022-12-14T16:14:15.999Z,-0.80
2022-12-14T16:17:23.091Z,-0.60
2022-12-14T16:20:29.682Z,-0.70
2022-12-14T16:23:37.965Z,-0.70
2022-12-14T16:26:43.834Z,-0.60
2022-12-14T16:30:15.069Z,-0.50
2022-12-14T16:33:20.296Z,-0.50
2022-12-14T16:36:26.366Z,-0.50
2022-12-14T16:39:39.204Z,-0.50
2022-12-14T16:42:44.689Z,-0.50
2022-12-14T16:46:09.282Z,-0.50
2022-12-14T16:49:38.858Z,-0.60
2022-12-14T16:52:40.528Z,-0.60
2022-12-14T16:56:05.412Z,-0.60
2022-12-14T16:59:20.868Z,-0.60
